Time;durP1;ratioP1;P1;durP2;ratioP2;P2;SDS_P1;SDS_P2;PMS_P1;PMS_P2;Temp;Humidity;BMP_temperature;BMP_pressure;BME280_temperature;BME280_humidity;BME280_pressure;Samples;Min_cycle;Max_cycle;Signal;HPM_P1;HPM_P2
2022/09/14 00:00:45;;;;;;;5.50;3.30;;;;;;;15.02;71.19;95948.93;108017;1270;26730;-78
2022/09/14 00:03:33;;;;;;;5.10;3.00;;;;;;;14.92;71.40;95947.99;108089;1270;24131;-78
2022/09/14 00:06:07;;;;;;;4.10;3.20;;;;;;;14.82;71.71;95943.80;108078;1270;22561;-78
2022/09/14 00:08:39;;;;;;;4.60;3.50;;;;;;;14.74;71.92;95939.99;108021;1270;28443;-77
2022/09/14 00:11:13;;;;;;;4.70;3.50;;;;;;;14.67;72.23;95934.39;108094;1270;22536;-78
2022/09/14 00:13:46;;;;;;;4.10;3.70;;;;;;;14.62;72.66;95929.66;107999;1270;23801;-77
2022/09/14 00:16:19;;;;;;;3.30;3.00;;;;;;;14.59;72.73;95936.26;108001;1270;22859;-77
2022/09/14 00:18:54;;;;;;;4.30;3.40;;;;;;;14.56;72.99;95934.70;107998;1270;23367;-77
2022/09/14 00:21:26;;;;;;;4.60;3.50;;;;;;;14.54;73.13;95931.39;108074;1269;25363;-77
2022/09/14 00:23:57;;;;;;;5.90;3.00;;;;;;;14.53;73.15;95933.23;108100;1270;22548;-78
2022/09/14 00:26:28;;;;;;;4.20;3.50;;;;;;;14.53;73.20;95933.28;108076;1269;25990;-78
2022/09/14 00:29:03;;;;;;;3.50;3.20;;;;;;;14.52;73.27;95933.79;107924;1270;24768;-78
2022/09/14 00:31:36;;;;;;;3.80;3.40;;;;;;;14.53;73.30;95933.51;108101;1270;22568;-78
2022/09/14 00:34:11;;;;;;;3.80;3.40;;;;;;;14.57;73.34;95939.07;108081;1270;22533;-78
2022/09/14 00:36:45;;;;;;;3.90;3.20;;;;;;;14.60;73.55;95935.23;108075;1270;22603;-78
2022/09/14 00:39:17;;;;;;;3.80;3.30;;;;;;;14.64;73.61;95934.92;108056;1270;31247;-78
2022/09/14 00:41:50;;;;;;;4.30;3.30;;;;;;;14.67;73.60;95934.33;108115;1270;22618;-78
2022/09/14 00:45:00;;;;;;;3.80;3.20;;;;;;;14.74;73.61;95931.67;108008;1270;22592;-78
2022/09/14 00:47:33;;;;;;;4.00;3.60;;;;;;;14.80;73.51;95933.52;107996;1270;22556;-78
2022/09/14 00:50:08;;;;;;;4.10;3.10;;;;;;;14.84;73.41;95930.16;107954;1270;39636;-78
2022/09/14 00:52:41;;;;;;;4.80;3.50;;;;;;;14.84;73.40;95928.88;108103;1271;22541;-78
2022/09/14 00:55:14;;;;;;;3.80;3.10;;;;;;;14.82;73.42;95928.04;108052;1270;24453;-78
2022/09/14 00:57:49;;;;;;;3.60;3.20;;;;;;;14.77;73.47;95926.02;107988;1270;22533;-78
2022/09/14 01:00:24;;;;;;;6.20;3.30;;;;;;;14.73;73.50;95923.48;108006;1270;28690;-78
2022/09/14 01:02:55;;;;;;;4.60;3.50;;;;;;;14.68;73.61;95923.73;108085;1270;22625;-78
2022/09/14 01:05:32;;;;;;;3.60;3.20;;;;;;;14.64;73.69;95924.33;108064;1270;22668;-78
2022/09/14 01:08:30;;;;;;;3.30;3.00;;;;;;;14.59;73.82;95921.16;108013;1270;22606;-78
2022/09/14 01:11:24;;;;;;;4.00;3.60;;;;;;;14.54;74.00;95916.39;108042;1270;22558;-78
2022/09/14 01:14:04;;;;;;;5.60;3.50;;;;;;;14.51;74.26;95922.53;108085;1270;22564;-78
2022/09/14 01:16:44;;;;;;;3.70;3.30;;;;;;;14.52;74.28;95922.34;108051;1270;22748;-78
2022/09/14 01:19:26;;;;;;;3.80;3.10;;;;;;;14.52;74.38;95926.32;108020;1270;29603;-78
2022/09/14 01:22:06;;;;;;;3.90;3.20;;;;;;;14.52;74.47;95924.50;108078;1270;24114;-78
2022/09/14 01:24:46;;;;;;;5.50;3.30;;;;;;;14.49;74.58;95916.87;108082;1270;24272;-78
2022/09/14 01:27:29;;;;;;;4.00;3.00;;;;;;;14.49;74.65;95916.02;108110;1270;22516;-78
2022/09/14 01:30:11;;;;;;;4.40;3.50;;;;;;;14.50;74.74;95911.42;108031;1270;28178;-78
2022/09/14 01:32:50;;;;;;;4.20;3.00;;;;;;;14.49;74.70;95913.68;108097;1270;22568;-78
2022/09/14 01:35:29;;;;;;;4.50;3.50;;;;;;;14.48;74.79;95908.59;107999;1270;24220;-78
2022/09/14 01:38:05;;;;;;;4.00;3.10;;;;;;;14.48;74.74;95910.21;108100;1269;22529;-78
2022/09/14 01:40:40;;;;;;;4.00;3.50;;;;;;;14.46;74.75;95908.51;106734;1270;1699703;-78
2022/09/14 01:43:15;;;;;;;5.30;3.60;;;;;;;14.44;74.85;95906.22;108090;1270;26482;-78
2022/09/14 01:45:49;;;;;;;3.50;3.00;;;;;;;14.41;74.97;95902.42;108065;1270;23816;-78
2022/09/14 01:48:25;;;;;;;6.00;3.80;;;;;;;14.37;74.99;95897.16;107964;1270;32455;-77
2022/09/14 01:51:03;;;;;;;3.70;3.10;;;;;;;14.34;74.97;95895.41;108095;1270;24087;-78
2022/09/14 01:53:37;;;;;;;4.00;3.60;;;;;;;14.30;75.07;95892.60;108088;1270;22529;-78
2022/09/14 01:56:15;;;;;;;5.50;3.50;;;;;;;14.25;75.22;95895.91;108081;1270;22555;-78
2022/09/14 01:58:50;;;;;;;4.50;3.50;;;;;;;14.22;75.38;95893.98;107995;1270;31640;-78
2022/09/14 02:01:28;;;;;;;3.60;3.30;;;;;;;14.17;75.52;95891.79;108088;1270;23055;-78
2022/09/14 02:04:05;;;;;;;4.80;3.10;;;;;;;14.15;75.71;95891.48;108083;1267;22694;-78
2022/09/14 02:06:40;;;;;;;4.70;3.80;;;;;;;14.12;75.83;95889.46;108074;1270;26462;-78
2022/09/14 02:09:16;;;;;;;4.70;3.80;;;;;;;14.09;75.87;95883.17;108031;1270;25238;-78
2022/09/14 02:11:48;;;;;;;5.10;3.10;;;;;;;14.05;75.88;95874.23;108089;1270;25902;-78
2022/09/14 02:14:19;;;;;;;4.30;3.60;;;;;;;14.02;75.99;95877.35;108064;1270;22559;-78
2022/09/14 02:16:50;;;;;;;4.70;3.20;;;;;;;13.99;76.07;95871.09;108071;1270;24265;-78
2022/09/14 02:19:23;;;;;;;4.40;3.50;;;;;;;13.97;76.36;95868.40;108034;1271;29708;-78
2022/09/14 02:21:54;;;;;;;3.70;3.10;;;;;;;13.95;76.32;95869.41;108083;1270;22544;-78
2022/09/14 02:24:27;;;;;;;4.30;3.40;;;;;;;13.93;76.38;95875.23;108079;1270;22530;-78
2022/09/14 02:26:59;;;;;;;3.60;3.30;;;;;;;13.91;76.63;95868.67;108074;1270;26329;-78
2022/09/14 02:29:31;;;;;;;4.30;3.10;;;;;;;13.91;76.70;95871.19;108011;1270;26721;-78
2022/09/14 02:32:14;;;;;;;3.50;3.20;;;;;;;13.89;76.78;95872.02;108069;1270;22785;-78
2022/09/14 02:34:53;;;;;;;3.80;3.40;;;;;;;13.90;76.84;95868.94;108056;1270;24376;-78
2022/09/14 02:37:30;;;;;;;4.00;3.00;;;;;;;13.86;76.80;95867.95;108080;1270;22539;-78
2022/09/14 02:40:14;;;;;;;3.90;3.50;;;;;;;13.83;76.98;95861.59;108082;1270;29836;-78
2022/09/14 02:42:55;;;;;;;4.50;3.10;;;;;;;13.83;77.11;95865.17;108063;1270;24068;-78
2022/09/14 02:45:34;;;;;;;4.30;3.20;;;;;;;13.84;77.19;95864.07;107972;1269;22542;-78
2022/09/14 02:48:18;;;;;;;3.90;3.40;;;;;;;13.82;77.24;95865.36;108051;1270;22528;-78
2022/09/14 02:50:56;;;;;;;4.50;3.20;;;;;;;13.81;77.15;95863.17;108051;1270;22630;-78
2022/09/14 02:53:34;;;;;;;3.90;3.40;;;;;;;13.78;77.27;95866.29;108084;1270;22543;-78
2022/09/14 02:56:07;;;;;;;4.70;3.40;;;;;;;13.76;77.36;95861.44;108045;1271;26917;-78
2022/09/14 02:58:40;;;;;;;4.20;3.20;;;;;;;13.73;77.56;95860.23;108050;1270;25741;-78
2022/09/14 03:01:13;;;;;;;3.30;3.00;;;;;;;13.68;77.51;95856.77;108031;1271;26918;-78
2022/09/14 03:03:47;;;;;;;4.70;3.60;;;;;;;13.63;77.66;95853.44;108068;1270;22526;-78
2022/09/14 03:06:18;;;;;;;6.10;3.70;;;;;;;13.58;77.78;95854.08;108090;1270;22568;-78
2022/09/14 03:08:50;;;;;;;3.70;3.20;;;;;;;13.58;77.97;95859.21;108006;1270;26439;-78
2022/09/14 03:11:21;;;;;;;3.80;3.50;;;;;;;13.58;78.26;95855.87;108078;1270;22529;-78
2022/09/14 03:13:52;;;;;;;5.60;3.70;;;;;;;13.63;78.44;95856.23;108065;1271;27023;-78
2022/09/14 03:16:23;;;;;;;4.90;3.60;;;;;;;13.62;78.35;95847.14;108074;1270;22548;-78
2022/09/14 03:18:54;;;;;;;4.20;3.50;;;;;;;13.57;78.40;95843.89;108010;1270;26048;-78
2022/09/14 03:21:26;;;;;;;4.80;3.60;;;;;;;13.53;78.50;95846.76;108102;1270;26466;-78
2022/09/14 03:23:58;;;;;;;4.00;3.30;;;;;;;13.49;78.53;95845.06;108108;1270;22685;-78
2022/09/14 03:26:29;;;;;;;4.10;3.40;;;;;;;13.46;78.59;95845.31;108098;1268;22623;-78
2022/09/14 03:29:01;;;;;;;3.80;3.50;;;;;;;13.43;78.74;95848.17;108034;1268;30861;-78
2022/09/14 03:31:34;;;;;;;4.60;3.40;;;;;;;13.41;78.75;95849.05;108117;1268;22653;-78
2022/09/14 03:34:05;;;;;;;4.70;3.80;;;;;;;13.38;78.87;95844.08;108180;1268;22583;-78
2022/09/14 03:36:36;;;;;;;3.90;3.20;;;;;;;13.38;79.00;95835.57;108087;1268;22559;-78
2022/09/14 03:39:08;;;;;;;4.90;3.90;;;;;;;13.39;79.19;95834.44;108017;1270;29697;-78
2022/09/14 03:41:40;;;;;;;3.60;3.30;;;;;;;13.37;79.11;95835.80;108044;1270;25313;-78
2022/09/14 03:44:12;;;;;;;4.90;3.80;;;;;;;13.36;79.20;95833.07;107942;1270;25235;-78
2022/09/14 03:46:45;;;;;;;5.70;3.60;;;;;;;13.35;79.42;95834.20;107977;1270;22545;-78
2022/09/14 03:49:16;;;;;;;4.30;3.40;;;;;;;13.37;79.68;95835.48;107953;1270;34266;-78
2022/09/14 03:51:47;;;;;;;4.30;3.90;;;;;;;13.44;79.68;95837.40;108120;1270;26638;-78
2022/09/14 03:54:19;;;;;;;4.40;3.30;;;;;;;13.45;79.47;95838.36;108082;1270;24257;-78
2022/09/14 03:56:51;;;;;;;4.50;3.90;;;;;;;13.42;79.58;95838.97;108082;1271;22542;-78
2022/09/14 03:59:22;;;;;;;5.60;3.60;;;;;;;13.40;79.66;95839.14;107983;1271;22893;-78
2022/09/14 04:01:54;;;;;;;5.20;3.70;;;;;;;13.42;79.93;95838.59;108038;1270;23789;-78
2022/09/14 04:04:25;;;;;;;4.60;3.50;;;;;;;13.46;79.90;95840.80;108072;1270;22546;-78
2022/09/14 04:06:56;;;;;;;3.90;3.50;;;;;;;13.48;79.82;95845.19;108059;1270;22543;-78
2022/09/14 04:09:27;;;;;;;4.60;3.30;;;;;;;13.52;79.81;95838.66;108010;1270;25602;-78
2022/09/14 04:12:00;;;;;;;4.20;3.80;;;;;;;13.53;79.82;95837.95;108087;1271;22715;-78
2022/09/14 04:14:31;;;;;;;4.50;3.10;;;;;;;13.53;79.72;95839.48;108080;1270;22700;-78
2022/09/14 04:17:02;;;;;;;4.00;3.60;;;;;;;13.52;79.80;95838.30;108102;1271;23319;-78
2022/09/14 04:19:36;;;;;;;6.20;3.50;;;;;;;13.52;79.83;95842.03;108002;1270;28046;-78
2022/09/14 04:22:07;;;;;;;4.00;3.60;;;;;;;13.51;79.87;95839.61;108072;1271;26630;-78
2022/09/14 04:24:38;;;;;;;4.30;3.70;;;;;;;13.52;79.99;95838.66;107992;1271;22554;-78
2022/09/14 04:27:10;;;;;;;4.40;3.50;;;;;;;13.52;80.21;95841.73;108087;1270;22997;-78
2022/09/14 04:29:41;;;;;;;3.70;3.40;;;;;;;13.52;80.27;95844.33;107944;1270;29042;-78
2022/09/14 04:32:12;;;;;;;4.10;3.50;;;;;;;13.55;80.35;95842.43;108029;1270;22610;-78
2022/09/14 04:34:43;;;;;;;3.60;2.90;;;;;;;13.57;80.49;95839.86;108087;1270;24325;-78
2022/09/14 04:37:15;;;;;;;6.20;3.40;;;;;;;13.55;80.62;95842.28;108071;1270;22538;-78
2022/09/14 04:39:46;;;;;;;4.10;3.60;;;;;;;13.56;80.53;95840.83;107961;1271;27055;-78
2022/09/14 04:42:17;;;;;;;4.60;3.90;;;;;;;13.61;80.40;95841.73;108019;1270;23789;-78
2022/09/14 04:44:48;;;;;;;6.00;3.90;;;;;;;13.69;80.44;95840.66;108017;1270;22564;-78
2022/09/14 04:47:19;;;;;;;4.60;4.00;;;;;;;13.79;80.35;95832.26;108063;1271;22544;-78
2022/09/14 04:49:51;;;;;;;6.20;4.00;;;;;;;13.99;80.21;95827.23;108019;1271;29539;-78
2022/09/14 04:52:23;;;;;;;3.60;3.20;;;;;;;14.08;79.80;95822.56;107993;1270;22554;-78
2022/09/14 04:54:54;;;;;;;4.60;3.50;;;;;;;14.09;79.55;95827.95;108087;1271;22763;-78
2022/09/14 04:57:26;;;;;;;5.40;3.70;;;;;;;14.08;79.52;95833.70;107989;1270;26482;-78
2022/09/14 04:59:57;;;;;;;5.20;3.60;;;;;;;14.08;79.50;95829.37;107992;1271;29396;-78
2022/09/14 05:02:30;;;;;;;5.00;3.60;;;;;;;14.09;79.43;95834.48;108086;1270;22546;-78
2022/09/14 05:05:02;;;;;;;4.80;3.20;;;;;;;14.10;79.36;95828.52;108019;1271;22543;-78
2022/09/14 05:07:35;;;;;;;4.40;3.50;;;;;;;14.11;79.37;95827.95;108041;1271;22524;-78
2022/09/14 05:10:08;;;;;;;3.70;3.40;;;;;;;14.12;79.42;95827.84;108040;1270;25296;-78
2022/09/14 05:12:39;;;;;;;3.40;3.10;;;;;;;14.15;79.78;95827.20;108111;1270;25362;-78
2022/09/14 05:15:12;;;;;;;3.70;3.30;;;;;;;14.19;80.10;95826.11;108065;1270;22722;-78
2022/09/14 05:17:44;;;;;;;4.30;3.30;;;;;;;14.20;80.16;95826.11;108136;1269;22539;-78
2022/09/14 05:20:15;;;;;;;3.30;3.00;;;;;;;14.29;80.60;95826.23;107981;1270;35787;-78
2022/09/14 05:22:51;;;;;;;3.70;3.40;;;;;;;14.42;80.34;95821.58;108117;1271;22558;-78
2022/09/14 05:25:22;;;;;;;3.70;3.30;;;;;;;14.59;79.76;95816.92;108045;1271;22585;-77
2022/09/14 05:27:53;;;;;;;3.70;3.30;;;;;;;14.78;79.21;95818.48;108093;1271;25693;-78
2022/09/14 05:30:28;;;;;;;4.00;3.10;;;;;;;14.96;79.39;95821.73;108013;1271;24840;-78
2022/09/14 05:32:59;;;;;;;3.80;3.20;;;;;;;15.13;78.74;95821.98;108011;1270;22701;-78
2022/09/14 05:35:30;;;;;;;4.40;3.20;;;;;;;15.22;77.98;95814.55;108095;1271;22574;-78
2022/09/14 05:38:02;;;;;;;4.20;3.20;;;;;;;15.32;77.55;95813.73;108074;1271;23228;-78
2022/09/14 05:40:33;;;;;;;3.00;2.70;;;;;;;15.37;77.18;95813.76;107921;1271;32319;-78
2022/09/14 05:43:05;;;;;;;3.90;3.30;;;;;;;15.45;76.83;95819.84;108044;1271;22584;-78
2022/09/14 05:45:36;;;;;;;3.30;3.00;;;;;;;15.58;76.99;95819.41;107992;1271;22541;-78
2022/09/14 05:48:08;;;;;;;9.30;3.10;;;;;;;15.68;76.13;95814.25;108012;1271;22552;-78
2022/09/14 05:50:39;;;;;;;4.10;3.10;;;;;;;15.78;75.63;95810.09;107962;1271;32021;-78
2022/09/14 05:53:10;;;;;;;3.40;3.10;;;;;;;15.90;75.35;95808.45;108103;1271;22571;-78
2022/09/14 05:55:42;;;;;;;4.30;3.50;;;;;;;16.15;75.06;95804.22;108077;1271;24653;-78
2022/09/14 05:58:13;;;;;;;3.70;3.10;;;;;;;16.28;73.90;95798.20;108023;1270;22628;-78
2022/09/14 06:00:44;;;;;;;3.50;3.20;;;;;;;16.21;73.54;95806.54;108095;1271;22577;-78
2022/09/14 06:03:15;;;;;;;6.10;4.50;;;;;;;16.12;73.90;95805.24;108068;1271;22535;-78
2022/09/14 06:05:46;;;;;;;4.20;3.80;;;;;;;16.14;74.01;95805.55;108031;1270;24037;-78
2022/09/14 06:08:17;;;;;;;6.00;4.10;;;;;;;16.18;73.96;95803.77;108083;1271;22619;-78
2022/09/14 06:10:48;;;;;;;7.90;5.50;;;;;;;16.22;73.65;95798.10;108086;1271;22536;-78
2022/09/14 06:13:23;;;;;;;8.80;6.50;;;;;;;16.17;73.48;95805.46;108083;1271;23237;-78
2022/09/14 06:15:55;;;;;;;9.40;6.90;;;;;;;16.16;73.59;95803.92;108108;1271;22618;-78
2022/09/14 06:18:26;;;;;;;10.00;7.10;;;;;;;16.25;73.84;95803.08;107998;1271;33997;-78
2022/09/14 06:20:57;;;;;;;9.60;7.50;;;;;;;16.52;73.79;95799.48;108074;1271;22550;-78
2022/09/14 06:23:30;;;;;;;9.30;7.10;;;;;;;17.14;73.50;95806.52;108069;1270;22532;-78
2022/09/14 06:26:03;;;;;;;10.80;7.20;;;;;;;17.72;72.08;95806.30;108003;1271;23099;-78
2022/09/14 06:28:35;;;;;;;11.30;7.10;;;;;;;18.40;70.42;95799.89;107912;1271;28878;-78
2022/09/14 06:31:08;;;;;;;7.40;5.80;;;;;;;18.69;68.54;95807.88;108019;1271;22623;-78
2022/09/14 06:33:42;;;;;;;6.10;4.10;;;;;;;18.91;67.21;95803.45;108036;1271;24013;-78
2022/09/14 06:36:16;;;;;;;7.80;4.90;;;;;;;18.82;66.70;95802.09;108058;1271;22630;-78
2022/09/14 06:38:49;;;;;;;5.70;4.80;;;;;;;18.95;66.40;95802.23;107997;1271;33964;-78
2022/09/14 06:41:22;;;;;;;6.60;5.00;;;;;;;19.18;66.08;95809.76;108036;1270;23195;-78
2022/09/14 06:43:55;;;;;;;7.50;5.30;;;;;;;19.64;66.00;95816.29;107977;1271;22520;-78
2022/09/14 06:46:28;;;;;;;5.50;4.00;;;;;;;20.06;64.62;95816.77;107949;1271;24346;-78
2022/09/14 06:49:02;;;;;;;4.40;3.00;;;;;;;20.67;63.43;95816.62;107930;1271;26078;-78
2022/09/14 06:51:36;;;;;;;2.90;2.60;;;;;;;20.89;61.88;95805.02;108004;1271;22809;-78
2022/09/14 06:54:11;;;;;;;2.90;2.40;;;;;;;20.75;61.08;95808.36;107983;1271;22736;-78
2022/09/14 06:56:44;;;;;;;3.20;2.50;;;;;;;20.65;60.78;95808.28;107903;1271;22593;-79
2022/09/14 06:59:16;;;;;;;2.70;2.50;;;;;;;20.94;60.97;95807.61;107889;1271;30552;-78
2022/09/14 07:01:48;;;;;;;5.60;3.40;;;;;;;20.93;60.14;95804.75;107956;1271;24039;-78
2022/09/14 07:04:20;;;;;;;2.80;2.20;;;;;;;20.45;60.29;95811.81;108010;1271;22612;-78
2022/09/14 07:06:51;;;;;;;3.50;2.70;;;;;;;20.15;60.42;95815.69;108008;1271;26587;-79
2022/09/14 07:09:23;;;;;;;3.50;2.60;;;;;;;19.91;60.98;95817.88;107957;1271;28993;-78
2022/09/14 07:11:54;;;;;;;3.00;2.60;;;;;;;19.62;61.78;95826.09;107971;1271;22578;-78
2022/09/14 07:14:26;;;;;;;4.40;2.30;;;;;;;19.37;62.52;95818.44;108051;1271;26060;-78
2022/09/14 07:16:59;;;;;;;3.70;2.50;;;;;;;19.18;62.91;95811.75;107975;1271;22567;-78
2022/09/14 07:19:31;;;;;;;2.70;2.30;;;;;;;19.14;63.40;95818.35;107971;1271;26437;-78
2022/09/14 07:22:02;;;;;;;2.50;2.30;;;;;;;19.19;63.65;95818.77;107985;1271;23763;-78
2022/09/14 07:24:33;;;;;;;3.70;2.90;;;;;;;19.32;63.75;95820.11;107972;1271;22630;-78
2022/09/14 07:27:05;;;;;;;2.50;2.30;;;;;;;19.39;63.91;95820.55;108043;1271;23474;-78
2022/09/14 07:29:36;;;;;;;3.90;2.50;;;;;;;19.42;63.74;95820.00;107936;1271;26585;-78
2022/09/14 07:32:08;;;;;;;3.20;2.60;;;;;;;19.48;63.50;95826.97;108022;1271;22527;-79
2022/09/14 07:34:39;;;;;;;3.70;2.40;;;;;;;19.43;63.81;95825.12;107988;1271;22520;-79
2022/09/14 07:37:10;;;;;;;3.70;2.60;;;;;;;19.47;64.15;95823.95;108032;1270;25257;-79
2022/09/14 07:39:42;;;;;;;3.80;2.60;;;;;;;19.45;64.01;95820.84;107933;1271;28117;-78
2022/09/14 07:42:14;;;;;;;3.50;2.50;;;;;;;19.43;64.05;95820.27;107970;1271;23893;-78
2022/09/14 07:44:45;;;;;;;4.00;2.70;;;;;;;19.37;63.70;95815.77;108067;1271;22540;-78
2022/09/14 07:47:17;;;;;;;3.80;2.70;;;;;;;19.18;64.28;95813.61;108025;1271;22524;-79
2022/09/14 07:49:48;;;;;;;4.40;2.30;;;;;;;19.11;64.67;95810.68;107963;1271;25299;-78
2022/09/14 07:52:19;;;;;;;3.00;2.70;;;;;;;19.07;65.10;95808.77;108042;1271;22559;-78
2022/09/14 07:54:50;;;;;;;3.50;2.70;;;;;;;18.98;65.47;95814.88;108022;1271;22545;-78
2022/09/14 07:57:21;;;;;;;4.60;3.10;;;;;;;18.91;65.58;95816.41;108010;1271;22544;-79
2022/09/14 07:59:53;;;;;;;3.60;2.70;;;;;;;18.79;65.82;95816.46;107967;1271;31948;-78
2022/09/14 08:02:27;;;;;;;2.90;2.70;;;;;;;18.65;66.36;95818.97;107989;1271;22574;-79
2022/09/14 08:04:58;;;;;;;2.90;2.60;;;;;;;18.55;66.65;95818.26;108041;1271;22578;-79
2022/09/14 08:07:30;;;;;;;4.30;2.60;;;;;;;18.47;67.00;95820.00;108042;1269;23149;-78
2022/09/14 08:10:01;;;;;;;3.00;2.70;;;;;;;18.42;67.24;95814.98;107961;1271;31293;-79
2022/09/14 08:12:33;;;;;;;3.90;3.00;;;;;;;18.36;67.41;95813.52;108138;1268;22533;-78
2022/09/14 08:15:04;;;;;;;5.40;3.70;;;;;;;18.28;67.81;95809.20;108110;1268;22557;-78
2022/09/14 08:17:35;;;;;;;4.60;3.00;;;;;;;18.28;68.37;95812.86;108076;1268;22562;-79
2022/09/14 08:20:08;;;;;;;4.10;3.10;;;;;;;18.32;68.23;95808.69;108024;1268;32755;-79
2022/09/14 08:22:39;;;;;;;4.80;3.30;;;;;;;18.40;68.26;95805.03;108117;1268;22659;-79
2022/09/14 08:25:11;;;;;;;3.70;3.00;;;;;;;18.52;67.82;95804.38;108091;1268;23348;-79
2022/09/14 08:27:43;;;;;;;3.80;2.60;;;;;;;18.69;67.75;95803.63;108090;1267;22527;-78
2022/09/14 08:30:15;;;;;;;3.70;2.90;;;;;;;18.89;67.64;95799.80;108052;1268;25219;-78
2022/09/14 08:32:46;;;;;;;4.10;2.80;;;;;;;19.10;67.07;95802.17;108045;1270;23852;-79
2022/09/14 08:35:17;;;;;;;2.80;2.50;;;;;;;19.30;67.24;95799.88;108086;1268;24403;-79
2022/09/14 08:37:49;;;;;;;4.40;2.90;;;;;;;19.67;67.02;95799.85;108068;1268;22648;-79
2022/09/14 08:40:20;;;;;;;3.80;2.60;;;;;;;20.06;66.23;95796.08;108048;1266;24658;-79
2022/09/14 08:42:56;;;;;;;5.10;3.10;;;;;;;20.37;65.54;95794.52;108091;1268;22561;-79
2022/09/14 08:45:29;;;;;;;2.80;2.50;;;;;;;20.87;65.48;95794.12;108136;1268;22509;-78
2022/09/14 08:48:01;;;;;;;2.70;2.00;;;;;;;21.14;62.44;95788.24;108121;1268;22629;-78
2022/09/14 08:50:33;;;;;;;2.80;2.60;;;;;;;20.94;61.05;95791.75;108017;1268;33990;-78
2022/09/14 08:53:04;;;;;;;2.50;2.30;;;;;;;21.05;61.40;95788.91;108141;1268;22542;-78
2022/09/14 08:55:42;;;;;;;3.10;2.60;;;;;;;21.20;60.70;95788.16;108101;1268;24234;-78
2022/09/14 08:58:29;;;;;;;3.40;2.80;;;;;;;20.99;60.45;95791.27;108127;1268;22546;-78
2022/09/14 09:01:08;;;;;;;2.80;2.50;;;;;;;20.73;60.67;95794.63;108059;1268;26414;-78
2022/09/14 09:04:00;;;;;;;2.90;2.60;;;;;;;20.54;60.34;95788.11;108105;1267;22535;-78
2022/09/14 09:06:41;;;;;;;3.20;2.90;;;;;;;20.18;60.51;95786.52;108081;1267;22523;-78
2022/09/14 09:09:20;;;;;;;2.90;2.50;;;;;;;19.97;61.36;95783.86;108024;1268;31888;-78
2022/09/14 09:11:57;;;;;;;3.90;2.50;;;;;;;19.82;61.79;95788.59;108111;1268;22496;-78
2022/09/14 09:14:34;;;;;;;3.00;2.70;;;;;;;19.68;62.05;95785.73;108154;1268;25109;-78
2022/09/14 09:17:13;;;;;;;4.30;2.70;;;;;;;19.62;62.26;95784.55;108115;1268;22562;-78
2022/09/14 09:19:56;;;;;;;4.00;3.10;;;;;;;19.59;62.88;95797.02;108030;1268;27928;-78
2022/09/14 09:22:31;;;;;;;2.90;2.60;;;;;;;19.60;63.14;95795.34;108076;1268;22597;-78
2022/09/14 09:25:07;;;;;;;3.80;2.50;;;;;;;19.57;63.22;95797.00;108100;1268;22551;-78
2022/09/14 09:27:39;;;;;;;3.70;2.80;;;;;;;19.62;63.44;95799.44;108104;1268;25499;-78
2022/09/14 09:30:16;;;;;;;3.60;2.50;;;;;;;19.72;63.30;95795.73;108022;1268;26407;-78
2022/09/14 09:32:48;;;;;;;3.20;2.70;;;;;;;19.78;63.31;95795.27;108092;1268;25379;-78
2022/09/14 09:35:23;;;;;;;4.60;2.80;;;;;;;19.76;63.36;95796.48;108158;1268;22473;-78
2022/09/14 09:37:54;;;;;;;3.10;2.70;;;;;;;19.82;63.76;95793.06;108219;1268;24214;-78
2022/09/14 09:40:34;;;;;;;5.40;3.20;;;;;;;19.92;63.67;95789.55;108011;1268;30594;-78
2022/09/14 09:43:10;;;;;;;4.30;3.10;;;;;;;20.08;64.44;95790.05;108100;1267;24308;-78
2022/09/14 09:45:54;;;;;;;4.30;2.90;;;;;;;20.24;64.26;95789.91;108073;1268;24203;-78
2022/09/14 09:48:28;;;;;;;4.40;2.80;;;;;;;20.31;63.50;95790.35;108046;1268;32117;-78
2022/09/14 09:51:08;;;;;;;2.90;2.70;;;;;;;20.31;62.78;95785.73;108140;1268;25374;-78
2022/09/14 09:53:50;;;;;;;3.80;2.60;;;;;;;20.30;62.98;95783.64;108047;1271;26665;-78
2022/09/14 09:56:27;;;;;;;3.00;2.60;;;;;;;20.38;63.25;95784.53;108107;1268;24024;-78
2022/09/14 09:58:59;;;;;;;5.00;2.90;;;;;;;20.38;62.92;95785.60;108040;1268;29363;-78
2022/09/14 10:01:33;;;;;;;3.20;2.70;;;;;;;20.28;62.26;95786.98;108094;1268;22544;-78
2022/09/14 10:04:15;;;;;;;5.10;2.60;;;;;;;20.14;62.32;95792.00;108115;1268;22548;-78
2022/09/14 10:06:48;;;;;;;2.70;2.40;;;;;;;19.95;62.37;95789.28;108095;1268;22633;-78
2022/09/14 10:09:23;;;;;;;3.70;2.50;;;;;;;19.83;62.77;95792.98;108052;1267;24904;-78
2022/09/14 10:12:01;;;;;;;3.40;2.60;;;;;;;19.78;63.45;95789.52;108127;1268;22676;-78
2022/09/14 10:14:34;;;;;;;4.90;2.80;;;;;;;19.69;63.48;95789.74;108094;1268;23327;-78
2022/09/14 10:17:19;;;;;;;3.20;2.70;;;;;;;19.60;63.72;95790.13;108100;1268;22526;-78
2022/09/14 10:19:52;;;;;;;4.00;2.70;;;;;;;19.51;64.04;95788.00;107991;1268;35101;-78
2022/09/14 10:22:29;;;;;;;4.00;3.10;;;;;;;19.45;64.07;95787.28;108085;1268;24918;-78
2022/09/14 10:25:04;;;;;;;2.90;2.20;;;;;;;19.39;64.42;95788.91;108097;1268;23922;-78
2022/09/14 10:27:39;;;;;;;4.10;2.80;;;;;;;19.33;64.57;95782.89;108029;1270;22555;-78
2022/09/14 10:30:18;;;;;;;3.10;2.70;;;;;;;19.30;64.78;95787.75;107962;1271;38255;-78
2022/09/14 10:32:55;;;;;;;3.90;2.60;;;;;;;19.26;65.46;95787.43;108162;1268;24042;-78
2022/09/14 10:35:37;;;;;;;4.40;2.90;;;;;;;19.26;65.58;95787.89;108093;1268;22568;-78
2022/09/14 10:38:25;;;;;;;3.30;2.40;;;;;;;19.13;65.84;95785.25;108082;1268;22570;-79
2022/09/14 10:41:08;;;;;;;5.30;2.90;;;;;;;19.08;66.46;95788.05;108096;1270;25962;-78
2022/09/14 10:43:56;;;;;;;4.00;3.10;;;;;;;19.00;67.04;95789.90;108097;1268;24878;-78
2022/09/14 10:46:38;;;;;;;3.80;2.70;;;;;;;18.92;67.28;95789.75;108072;1270;22563;-78
2022/09/14 10:49:36;;;;;;;3.90;2.80;;;;;;;18.83;67.67;95793.59;108034;1268;26847;-78
2022/09/14 10:52:16;;;;;;;4.10;2.90;;;;;;;18.75;68.57;95791.44;108107;1268;24336;-78
2022/09/14 10:55:05;;;;;;;4.20;3.10;;;;;;;18.69;68.98;95795.22;108113;1268;22580;-79
2022/09/14 10:57:45;;;;;;;3.50;2.70;;;;;;;18.56;69.65;95792.96;108061;1270;23331;-79
2022/09/14 11:00:17;;;;;;;;;;;;;;;18.46;70.28;95793.74;108046;1268;26267;-78
2022/09/14 11:03:20;;;;;;;4.80;3.00;;;;;;;18.36;70.85;95793.73;108137;1267;24813;-78
2022/09/14 11:06:04;;;;;;;4.70;3.20;;;;;;;18.27;71.34;95792.29;108039;1270;23857;-78
2022/09/14 11:08:45;;;;;;;4.00;2.80;;;;;;;18.21;72.02;95793.09;108056;1267;27049;-78
2022/09/14 11:11:30;;;;;;;3.80;2.30;;;;;;;18.19;72.51;95800.16;108108;1268;22605;-78
2022/09/14 11:14:15;;;;;;;4.20;3.00;;;;;;;18.07;73.15;95793.81;108069;1268;24938;-78
2022/09/14 11:17:13;;;;;;;3.60;2.30;;;;;;;17.98;73.92;95798.55;108109;1267;25284;-78
2022/09/14 11:19:54;;;;;;;3.90;2.80;;;;;;;17.87;74.50;95797.36;107990;1268;27752;-78
2022/09/14 11:22:36;;;;;;;3.50;2.90;;;;;;;17.85;75.03;95797.83;108100;1270;24244;-78
2022/09/14 11:25:13;;;;;;;3.50;2.90;;;;;;;17.75;75.25;95795.60;108091;1267;22538;-78
2022/09/14 11:27:51;;;;;;;3.80;3.30;;;;;;;17.70;75.60;95794.92;108101;1268;22528;-78
2022/09/14 11:30:26;;;;;;;4.60;3.10;;;;;;;17.71;75.67;95791.81;108020;1268;30101;-78
2022/09/14 11:33:06;;;;;;;5.80;3.50;;;;;;;17.72;76.08;95791.76;108028;1270;23108;-78
2022/09/14 11:35:44;;;;;;;3.80;3.40;;;;;;;17.75;76.69;95790.80;108139;1268;22870;-78
2022/09/14 11:38:20;;;;;;;4.00;2.90;;;;;;;17.80;77.08;95788.06;108108;1270;22530;-78
2022/09/14 11:40:57;;;;;;;6.60;3.60;;;;;;;17.85;77.72;95783.51;108098;1267;24683;-78
2022/09/14 11:43:34;;;;;;;5.80;3.70;;;;;;;17.84;77.91;95780.03;108099;1267;22532;-78
2022/09/14 11:46:11;;;;;;;5.10;3.70;;;;;;;17.75;78.31;95775.02;108091;1268;24248;-77
2022/09/14 11:48:49;;;;;;;4.40;3.50;;;;;;;17.63;78.61;95770.30;108053;1267;34353;-77
2022/09/14 11:51:24;;;;;;;3.20;2.90;;;;;;;17.48;79.25;95764.79;108145;1267;22574;-78
2022/09/14 11:53:55;;;;;;;3.90;3.00;;;;;;;17.32;79.99;95763.50;108126;1268;22561;-78
2022/09/14 11:56:30;;;;;;;5.20;3.00;;;;;;;17.19;80.63;95759.73;108102;1268;22568;-77
2022/09/14 11:59:05;;;;;;;3.40;3.10;;;;;;;17.14;81.07;95754.66;108108;1267;27642;-78